createdAt,value
2018-05-23T00:00:37.985Z,15.50
2018-05-23T00:03:04.711Z,16.03
2018-05-23T00:05:31.439Z,15.50
2018-05-23T00:07:58.158Z,16.57
2018-05-23T00:10:24.906Z,15.70
2018-05-23T00:12:51.634Z,15.40
2018-05-23T00:15:18.377Z,16.13
2018-05-23T00:17:45.115Z,16.40
2018-05-23T00:20:11.857Z,18.70
2018-05-23T00:22:38.580Z,17.60
2018-05-23T00:25:05.313Z,15.93
2018-05-23T00:27:32.040Z,16.23
2018-05-23T00:29:58.765Z,18.57
2018-05-23T00:32:25.497Z,16.20
2018-05-23T00:34:52.237Z,15.87
2018-05-23T00:37:18.956Z,14.67
2018-05-23T00:39:45.708Z,15.93
2018-05-23T00:42:12.428Z,16.47
2018-05-23T00:44:39.174Z,15.67
2018-05-23T00:47:05.906Z,15.93
2018-05-23T00:49:32.641Z,16.13
2018-05-23T00:51:59.421Z,16.90
2018-05-23T00:54:26.158Z,21.67
2018-05-23T00:56:52.892Z,18.30
2018-05-23T00:59:19.641Z,14.80
2018-05-23T01:01:46.383Z,16.67
2018-05-23T01:04:13.127Z,18.37
2018-05-23T01:06:39.869Z,16.93
2018-05-23T01:09:06.626Z,16.80
2018-05-23T01:11:33.377Z,17.80
2018-05-23T01:14:00.103Z,16.80
2018-05-23T01:16:26.837Z,16.87
2018-05-23T01:18:53.584Z,16.63
2018-05-23T01:21:20.326Z,17.17
2018-05-23T01:23:47.073Z,17.60
2018-05-23T01:26:13.804Z,16.67
2018-05-23T01:28:40.533Z,17.17
2018-05-23T01:31:07.249Z,16.30
2018-05-23T01:33:33.984Z,17.63
2018-05-23T01:36:00.720Z,17.10
2018-05-23T01:38:27.453Z,17.80
2018-05-23T01:40:54.193Z,17.97
2018-05-23T01:43:20.922Z,18.53
2018-05-23T01:45:47.634Z,17.90
2018-05-23T01:48:14.355Z,19.20
2018-05-23T01:50:41.076Z,17.20
2018-05-23T01:53:07.805Z,16.93
2018-05-23T01:55:34.529Z,16.90
2018-05-23T01:58:01.257Z,17.43
2018-05-23T02:00:27.994Z,16.97
2018-05-23T02:02:55.036Z,18.13
2018-05-23T02:05:21.775Z,19.10
2018-05-23T02:07:48.526Z,19.93
2018-05-23T02:10:15.256Z,19.40
2018-05-23T02:12:41.980Z,18.50
2018-05-23T02:15:08.718Z,18.50
2018-05-23T02:17:35.471Z,18.10
2018-05-23T02:20:02.197Z,18.40
2018-05-23T02:22:28.928Z,19.43
2018-05-23T02:24:55.673Z,19.87
2018-05-23T02:27:22.432Z,19.93
2018-05-23T02:29:49.154Z,18.00
2018-05-23T02:32:15.883Z,18.97
2018-05-23T02:34:42.606Z,18.13
2018-05-23T02:37:09.349Z,21.03
2018-05-23T02:39:36.073Z,19.13
2018-05-23T02:42:02.829Z,18.47
2018-05-23T02:44:29.556Z,19.00
2018-05-23T02:46:56.403Z,18.50
2018-05-23T02:49:23.110Z,18.57
2018-05-23T02:51:49.841Z,19.10
2018-05-23T02:54:16.569Z,19.80
2018-05-23T02:56:43.310Z,20.47
2018-05-23T02:59:10.033Z,18.67
2018-05-23T03:01:36.773Z,19.80
2018-05-23T03:04:03.509Z,19.50
2018-05-23T03:06:30.256Z,21.43
2018-05-23T03:08:57.001Z,19.93
2018-05-23T03:11:23.732Z,20.47
2018-05-23T03:13:50.449Z,19.80
2018-05-23T03:16:17.193Z,22.37
2018-05-23T03:18:43.919Z,21.90
2018-05-23T03:21:10.648Z,19.47
2018-05-23T03:23:37.373Z,20.30
2018-05-23T03:26:04.154Z,21.50
2018-05-23T03:28:30.889Z,18.03
2018-05-23T03:30:57.614Z,20.00
2018-05-23T03:33:24.342Z,19.13
2018-05-23T03:35:51.073Z,17.53
2018-05-23T03:38:17.801Z,19.40
2018-05-23T03:40:44.545Z,18.70
2018-05-23T03:43:11.280Z,17.67
2018-05-23T03:45:38.035Z,18.70
2018-05-23T03:48:04.756Z,18.10
2018-05-23T03:50:31.488Z,21.03
2018-05-23T03:52:58.211Z,18.83
2018-05-23T03:55:25.019Z,18.57
2018-05-23T03:57:51.698Z,19.07
2018-05-23T04:00:24.302Z,19.67
2018-05-23T04:02:56.848Z,20.10
2018-05-23T04:05:29.441Z,22.60
2018-05-23T04:07:56.185Z,18.43
2018-05-23T04:10:22.939Z,18.10
2018-05-23T04:12:49.689Z,17.60
2018-05-23T04:15:16.410Z,18.90
2018-05-23T04:17:43.148Z,18.37
2018-05-23T04:20:09.905Z,17.93
2018-05-23T04:22:36.640Z,17.90
2018-05-23T04:25:03.366Z,18.03
2018-05-23T04:27:30.075Z,18.63
2018-05-23T04:29:56.820Z,19.43
2018-05-23T04:32:23.564Z,18.73
2018-05-23T04:34:50.292Z,19.27
2018-05-23T04:37:17.021Z,17.43
2018-05-23T04:39:43.770Z,18.10
2018-05-23T04:42:10.486Z,18.70
2018-05-23T04:44:37.215Z,21.33
2018-05-23T04:47:03.954Z,18.73
2018-05-23T04:49:30.677Z,21.23
2018-05-23T04:51:57.434Z,21.40
2018-05-23T04:54:24.155Z,20.60
2018-05-23T04:56:50.885Z,20.00
2018-05-23T04:59:17.623Z,19.50
2018-05-23T05:01:44.339Z,22.17
2018-05-23T05:04:11.057Z,21.37
2018-05-23T05:06:37.806Z,20.37
2018-05-23T05:09:04.573Z,18.07
2018-05-23T05:11:31.304Z,17.47
2018-05-23T05:13:58.035Z,20.07
2018-05-23T05:16:24.800Z,16.70
2018-05-23T05:18:51.529Z,17.30
2018-05-23T05:21:18.283Z,17.70
2018-05-23T05:23:45.006Z,17.20
2018-05-23T05:26:11.736Z,14.87
2018-05-23T05:28:38.533Z,16.57
2018-05-23T05:31:05.221Z,16.97
2018-05-23T05:33:31.949Z,16.70
2018-05-23T05:35:58.705Z,14.93
2018-05-23T05:38:25.437Z,16.90
2018-05-23T05:40:52.192Z,14.70
2018-05-23T05:43:18.915Z,14.40
2018-05-23T05:45:45.651Z,15.67
2018-05-23T05:48:12.380Z,15.20
2018-05-23T05:50:39.125Z,14.57
2018-05-23T05:53:05.859Z,14.37
2018-05-23T05:55:32.601Z,14.50
2018-05-23T05:57:59.351Z,14.53
2018-05-23T06:00:26.152Z,15.40
2018-05-23T06:02:53.795Z,15.17
2018-05-23T06:05:20.518Z,12.90
2018-05-23T06:07:47.242Z,14.20
2018-05-23T06:10:13.976Z,13.30
2018-05-23T06:12:40.724Z,13.97
2018-05-23T06:15:07.454Z,14.40
2018-05-23T06:17:34.207Z,13.33
2018-05-23T06:20:00.932Z,11.73
2018-05-23T06:22:27.668Z,13.53
2018-05-23T06:24:54.405Z,13.00
2018-05-23T06:27:21.147Z,12.80
2018-05-23T06:29:47.877Z,14.30
2018-05-23T06:32:14.630Z,14.23
2018-05-23T06:34:41.361Z,12.67
2018-05-23T06:37:08.100Z,14.23
2018-05-23T06:39:34.823Z,13.73
2018-05-23T06:42:01.556Z,14.23
2018-05-23T06:44:30.780Z,12.70
2018-05-23T06:47:00.306Z,12.73
2018-05-23T06:49:27.211Z,12.87
2018-05-23T06:51:53.965Z,13.47
2018-05-23T06:54:20.693Z,12.63
2018-05-23T06:56:47.445Z,11.77
2018-05-23T06:59:14.173Z,12.97
2018-05-23T07:01:40.920Z,12.03
2018-05-23T07:04:07.659Z,13.10
2018-05-23T07:06:34.432Z,13.33
2018-05-23T07:09:01.136Z,13.13
2018-05-23T07:11:27.870Z,13.27
2018-05-23T07:13:54.606Z,14.33
2018-05-23T07:16:21.361Z,12.67
2018-05-23T07:18:48.095Z,12.70
2018-05-23T07:21:14.860Z,11.87
2018-05-23T07:23:46.369Z,11.00
2018-05-23T07:26:13.230Z,12.37
2018-05-23T07:28:39.961Z,11.70
2018-05-23T07:31:06.704Z,10.50
2018-05-23T07:33:34.609Z,11.57
2018-05-23T07:36:11.366Z,12.27
2018-05-23T07:38:56.916Z,12.60
2018-05-23T07:41:32.085Z,10.07
2018-05-23T07:44:00.991Z,10.60
2018-05-23T07:46:28.595Z,10.97
2018-05-23T07:48:55.342Z,10.27
2018-05-23T07:51:22.240Z,10.00
2018-05-23T07:53:49.525Z,10.23
2018-05-23T07:56:16.267Z,11.20
2018-05-23T07:58:43.069Z,11.27
2018-05-23T08:01:09.786Z,11.40
2018-05-23T08:03:36.638Z,10.70
2018-05-23T08:06:03.399Z,10.53
2018-05-23T08:08:30.124Z,8.17
2018-05-23T08:10:56.840Z,8.30
2018-05-23T08:13:23.570Z,10.53
2018-05-23T08:15:50.293Z,10.37
2018-05-23T08:18:17.027Z,11.33
2018-05-23T08:20:43.767Z,10.23
2018-05-23T08:23:10.490Z,9.60
2018-05-23T08:25:37.212Z,9.53
2018-05-23T08:28:03.948Z,8.30
2018-05-23T08:30:30.709Z,9.80
2018-05-23T08:32:57.436Z,8.90
2018-05-23T08:35:24.169Z,9.87
2018-05-23T08:37:50.899Z,10.83
2018-05-23T08:40:17.630Z,7.50
2018-05-23T08:42:44.357Z,7.57
2018-05-23T08:45:11.081Z,8.63
2018-05-23T08:47:37.791Z,7.33
2018-05-23T08:50:04.595Z,10.80
2018-05-23T08:52:31.261Z,8.43
2018-05-23T08:54:57.972Z,6.60
2018-05-23T08:57:24.689Z,8.90
2018-05-23T08:59:51.423Z,7.33
2018-05-23T09:02:18.137Z,7.07
2018-05-23T09:04:44.906Z,7.17
2018-05-23T09:07:11.643Z,10.70
2018-05-23T09:09:38.372Z,10.00
2018-05-23T09:12:05.098Z,7.97
2018-05-23T09:14:32.444Z,9.57
2018-05-23T09:16:59.763Z,7.97
2018-05-23T09:19:26.513Z,8.67
2018-05-23T09:21:53.241Z,9.37
2018-05-23T09:24:19.967Z,12.07
2018-05-23T09:26:46.697Z,8.63
2018-05-23T09:29:13.432Z,7.60
2018-05-23T09:31:40.164Z,8.13
2018-05-23T09:34:06.897Z,8.33
2018-05-23T09:36:33.647Z,7.90
2018-05-23T09:39:00.376Z,9.70
2018-05-23T09:41:27.139Z,9.53
2018-05-23T09:43:53.849Z,9.30
2018-05-23T09:46:20.881Z,8.17
2018-05-23T09:48:47.635Z,9.40
2018-05-23T09:51:14.370Z,8.93
2018-05-23T09:53:41.088Z,7.77
2018-05-23T09:56:07.823Z,10.93
2018-05-23T09:58:34.550Z,8.50
2018-05-23T10:01:01.304Z,14.10
2018-05-23T10:03:28.042Z,17.77
2018-05-23T10:05:54.792Z,14.33
2018-05-23T10:08:21.503Z,8.87
2018-05-23T10:10:48.243Z,9.80
2018-05-23T10:13:14.979Z,16.53
2018-05-23T10:15:41.721Z,9.67
2018-05-23T10:18:08.500Z,10.40
2018-05-23T10:20:35.246Z,11.00
2018-05-23T10:23:02.001Z,11.30
2018-05-23T10:25:28.799Z,10.80
2018-05-23T10:27:55.543Z,11.37
2018-05-23T10:30:22.272Z,10.90
2018-05-23T10:32:49.034Z,10.80
2018-05-23T10:35:15.756Z,10.23
2018-05-23T10:37:42.497Z,8.50
2018-05-23T10:40:09.229Z,10.13
2018-05-23T10:42:35.962Z,9.53
2018-05-23T10:45:02.710Z,9.33
2018-05-23T10:47:29.471Z,8.70
2018-05-23T10:49:56.198Z,9.17
2018-05-23T10:52:22.985Z,9.20
2018-05-23T10:54:49.706Z,9.03
2018-05-23T10:57:16.506Z,11.20
2018-05-23T10:59:43.207Z,8.30
2018-05-23T11:02:09.970Z,9.13
2018-05-23T11:04:36.703Z,11.33
2018-05-23T11:07:03.439Z,8.43
2018-05-23T11:09:30.169Z,11.03
2018-05-23T11:12:03.333Z,7.90
2018-05-23T11:14:30.071Z,7.23
2018-05-23T11:16:56.813Z,7.70
2018-05-23T11:19:23.552Z,8.03
2018-05-23T11:21:50.293Z,8.23
2018-05-23T11:24:17.021Z,12.50
2018-05-23T11:26:43.797Z,8.97
2018-05-23T11:29:10.531Z,10.20
2018-05-23T11:31:37.273Z,8.80
2018-05-23T11:34:04.028Z,14.40
2018-05-23T11:36:30.765Z,10.73
2018-05-23T11:38:57.529Z,9.27
2018-05-23T11:41:24.252Z,8.10
2018-05-23T11:43:50.986Z,8.33
2018-05-23T11:46:17.749Z,8.53
2018-05-23T11:48:44.488Z,8.20
2018-05-23T11:51:11.222Z,8.43
2018-05-23T11:53:37.971Z,8.73
2018-05-23T11:56:04.729Z,9.80
2018-05-23T11:58:31.454Z,8.40
2018-05-23T12:00:58.174Z,8.20
2018-05-23T12:03:24.910Z,10.10
2018-05-23T12:05:51.634Z,7.70
2018-05-23T12:08:18.364Z,9.57
2018-05-23T12:10:45.117Z,9.20
2018-05-23T12:13:11.844Z,8.00
2018-05-23T12:15:38.579Z,7.77
2018-05-23T12:18:05.301Z,8.10
2018-05-23T12:20:32.026Z,9.20
2018-05-23T12:22:58.775Z,9.27
2018-05-23T12:25:25.494Z,7.90
2018-05-23T12:27:52.216Z,7.70
2018-05-23T12:30:18.970Z,12.53
2018-05-23T12:32:45.688Z,6.67
2018-05-23T12:35:12.415Z,9.30
2018-05-23T12:37:39.144Z,9.10
2018-05-23T12:40:05.860Z,5.90
2018-05-23T12:42:32.590Z,7.27
2018-05-23T12:44:59.324Z,9.63
2018-05-23T12:47:26.050Z,6.80
2018-05-23T12:49:52.784Z,7.40
2018-05-23T12:52:19.511Z,8.17
2018-05-23T12:54:46.248Z,8.97
2018-05-23T12:57:13.016Z,5.67
2018-05-23T12:59:39.740Z,6.43
2018-05-23T13:02:06.460Z,7.23
2018-05-23T13:04:33.198Z,7.57
2018-05-23T13:06:59.920Z,6.23
2018-05-23T13:09:26.646Z,5.90
2018-05-23T13:11:53.386Z,7.20
2018-05-23T13:14:20.104Z,5.47
2018-05-23T13:16:46.835Z,6.50
2018-05-23T13:19:13.581Z,7.97
2018-05-23T13:21:40.323Z,5.17
2018-05-23T13:24:07.057Z,5.90
2018-05-23T13:26:33.781Z,7.77
2018-05-23T13:29:00.514Z,6.80
2018-05-23T13:31:27.221Z,5.27
2018-05-23T13:33:53.950Z,8.23
2018-05-23T13:36:20.697Z,5.57
2018-05-23T13:38:47.474Z,6.67
2018-05-23T13:41:14.186Z,5.57
2018-05-23T13:43:40.924Z,8.80
2018-05-23T13:46:07.637Z,5.57
2018-05-23T13:48:34.374Z,8.63
2018-05-23T13:51:01.108Z,5.77
2018-05-23T13:53:27.817Z,6.77
2018-05-23T13:55:54.574Z,9.23
2018-05-23T13:58:21.285Z,5.63
2018-05-23T14:00:48.007Z,5.80
2018-05-23T14:03:14.764Z,10.10
2018-05-23T14:05:41.493Z,9.20
2018-05-23T14:08:08.201Z,7.80
2018-05-23T14:10:35.100Z,5.77
2018-05-23T14:13:01.846Z,7.60
2018-05-23T14:15:28.560Z,6.33
2018-05-23T14:17:55.281Z,6.00
2018-05-23T14:20:22.012Z,10.50
2018-05-23T14:22:48.754Z,7.17
2018-05-23T14:25:15.497Z,5.80
2018-05-23T14:27:42.216Z,5.70
2018-05-23T14:30:08.941Z,5.40
2018-05-23T14:32:35.681Z,6.60
2018-05-23T14:35:02.399Z,8.27
2018-05-23T14:37:29.128Z,6.53
2018-05-23T14:39:55.869Z,8.53
2018-05-23T14:42:22.594Z,7.13
2018-05-23T14:44:49.347Z,7.13
2018-05-23T14:47:16.061Z,10.87
2018-05-23T14:49:42.783Z,6.53
2018-05-23T14:52:09.513Z,8.13
2018-05-23T14:54:36.684Z,6.50
2018-05-23T14:57:03.442Z,6.80
2018-05-23T14:59:30.192Z,12.40
2018-05-23T15:01:56.914Z,7.00
2018-05-23T15:04:24.113Z,9.37
2018-05-23T15:06:50.907Z,7.33
2018-05-23T15:09:17.632Z,9.13
2018-05-23T15:11:44.364Z,12.60
2018-05-23T15:14:11.098Z,8.20
2018-05-23T15:16:37.835Z,6.93
2018-05-23T15:19:04.588Z,10.43
2018-05-23T15:21:31.651Z,7.27
2018-05-23T15:23:58.501Z,8.73
2018-05-23T15:26:25.253Z,11.77
2018-05-23T15:28:52.000Z,7.63
2018-05-23T15:31:18.749Z,8.07
2018-05-23T15:33:45.473Z,6.87
2018-05-23T15:36:12.224Z,9.10
2018-05-23T15:38:38.964Z,7.27
2018-05-23T15:41:05.735Z,9.90
2018-05-23T15:43:32.747Z,10.20
2018-05-23T15:45:59.904Z,7.33
2018-05-23T15:48:26.730Z,6.60
2018-05-23T15:50:53.457Z,7.73
2018-05-23T15:53:20.227Z,9.40
2018-05-23T15:55:47.135Z,7.40
2018-05-23T15:58:13.908Z,7.43
2018-05-23T16:00:40.644Z,8.53
2018-05-23T16:03:07.414Z,11.50
2018-05-23T16:05:34.137Z,10.00
2018-05-23T16:08:00.873Z,7.20
2018-05-23T16:10:27.606Z,7.00
2018-05-23T16:12:54.351Z,6.77
2018-05-23T16:15:21.085Z,8.10
2018-05-23T16:17:47.812Z,10.40
2018-05-23T16:20:14.579Z,9.03
2018-05-23T16:22:41.308Z,10.40
2018-05-23T16:25:08.107Z,8.23
2018-05-23T16:27:34.858Z,8.57
2018-05-23T16:30:01.607Z,9.40
2018-05-23T16:32:28.337Z,9.33
2018-05-23T16:34:55.073Z,8.57
2018-05-23T16:37:21.887Z,7.80
2018-05-23T16:39:48.609Z,8.93
2018-05-23T16:42:15.423Z,9.87
2018-05-23T16:44:42.159Z,8.10
2018-05-23T16:47:08.905Z,10.93
2018-05-23T16:49:35.617Z,7.17
2018-05-23T16:52:02.390Z,7.93
2018-05-23T16:54:29.113Z,7.50
2018-05-23T16:56:55.840Z,8.63
2018-05-23T16:59:22.587Z,7.77
2018-05-23T17:01:49.332Z,17.30
2018-05-23T17:04:16.091Z,10.83
2018-05-23T17:06:42.859Z,8.63
2018-05-23T17:09:09.597Z,7.00
2018-05-23T17:11:36.336Z,8.23
2018-05-23T17:14:03.102Z,7.67
2018-05-23T17:16:29.818Z,10.10
2018-05-23T17:18:56.553Z,9.17
2018-05-23T17:21:23.298Z,11.70
2018-05-23T17:23:50.013Z,9.50
2018-05-23T17:26:16.748Z,8.70
2018-05-23T17:28:43.482Z,9.13
2018-05-23T17:31:10.234Z,8.60
2018-05-23T17:33:36.979Z,10.40
2018-05-23T17:36:03.761Z,10.10
2018-05-23T17:38:30.511Z,12.07
2018-05-23T17:40:57.490Z,9.00
2018-05-23T17:43:24.251Z,8.20
2018-05-23T17:45:51.087Z,12.20
2018-05-23T17:48:17.759Z,8.07
2018-05-23T17:50:44.510Z,11.90
2018-05-23T17:53:11.240Z,7.70
2018-05-23T17:55:37.978Z,9.37
2018-05-23T17:58:04.703Z,11.37
2018-05-23T18:00:31.477Z,9.50
2018-05-23T18:02:58.232Z,14.20
2018-05-23T18:05:24.973Z,11.30
2018-05-23T18:07:51.723Z,19.13
2018-05-23T18:10:18.481Z,11.23
2018-05-23T18:12:45.229Z,9.20
2018-05-23T18:15:11.983Z,9.93
2018-05-23T18:17:38.756Z,12.20
2018-05-23T18:20:05.529Z,9.17
2018-05-23T18:22:32.290Z,11.73
2018-05-23T18:24:59.045Z,9.23
2018-05-23T18:27:25.793Z,10.33
2018-05-23T18:29:52.597Z,10.67
2018-05-23T18:32:19.383Z,10.33
2018-05-23T18:34:46.132Z,11.17
2018-05-23T18:37:12.931Z,12.63
2018-05-23T18:39:39.682Z,16.40
2018-05-23T18:42:06.442Z,15.20
2018-05-23T18:44:33.207Z,10.70
2018-05-23T18:46:59.948Z,12.07
2018-05-23T18:49:26.721Z,11.03
2018-05-23T18:51:53.462Z,11.87
2018-05-23T18:54:20.210Z,12.07
2018-05-23T18:56:46.970Z,12.70
2018-05-23T18:59:13.826Z,13.93
2018-05-23T19:01:40.588Z,16.27
2018-05-23T19:04:07.334Z,16.37
2018-05-23T19:06:34.091Z,16.97
2018-05-23T19:09:00.835Z,14.83
2018-05-23T19:11:27.574Z,13.00
2018-05-23T19:13:54.442Z,11.37
2018-05-23T19:16:21.115Z,13.33
2018-05-23T19:18:47.942Z,17.27
2018-05-23T19:21:14.701Z,13.53
2018-05-23T19:23:41.454Z,12.50
2018-05-23T19:26:08.208Z,11.70
2018-05-23T19:28:34.970Z,14.80
2018-05-23T19:31:01.768Z,12.57
2018-05-23T19:33:28.532Z,13.23
2018-05-23T19:35:55.293Z,12.03
2018-05-23T19:38:22.056Z,14.10
2018-05-23T19:40:48.797Z,19.60
2018-05-23T19:43:15.536Z,14.27
2018-05-23T19:45:42.278Z,12.10
2018-05-23T19:48:09.091Z,12.77
2018-05-23T19:50:35.962Z,14.77
2018-05-23T19:53:02.711Z,16.30
2018-05-23T19:55:29.467Z,13.80
2018-05-23T19:57:56.251Z,12.17
2018-05-23T20:00:22.978Z,17.40
2018-05-23T20:02:49.739Z,12.93
2018-05-23T20:05:16.528Z,13.23
2018-05-23T20:07:43.295Z,13.20
2018-05-23T20:10:10.055Z,14.43
2018-05-23T20:12:36.799Z,16.93
2018-05-23T20:15:04.347Z,13.13
2018-05-23T20:17:31.182Z,15.70
2018-05-23T20:19:57.953Z,13.83
2018-05-23T20:22:24.722Z,12.13
2018-05-23T20:24:51.680Z,13.40
2018-05-23T20:27:18.437Z,13.43
2018-05-23T20:29:45.186Z,12.90
2018-05-23T20:32:11.935Z,13.27
2018-05-23T20:34:38.708Z,14.10
2018-05-23T20:37:05.453Z,12.93
2018-05-23T20:39:32.220Z,13.90
2018-05-23T20:41:58.958Z,13.53
2018-05-23T20:44:25.742Z,13.00
2018-05-23T20:46:52.507Z,13.40
2018-05-23T20:49:19.283Z,13.73
2018-05-23T20:51:46.031Z,13.10
2018-05-23T20:54:12.771Z,13.53
2018-05-23T20:56:39.510Z,13.93
2018-05-23T20:59:06.242Z,13.63
2018-05-23T21:01:33.019Z,16.97
2018-05-23T21:03:59.790Z,12.67
2018-05-23T21:06:26.516Z,13.47
2018-05-23T21:08:53.274Z,14.07
2018-05-23T21:11:20.056Z,12.57
2018-05-23T21:13:46.783Z,14.50
2018-05-23T21:16:13.507Z,13.07
2018-05-23T21:18:40.246Z,13.43
2018-05-23T21:21:07.048Z,14.07
2018-05-23T21:23:33.792Z,18.70
2018-05-23T21:26:00.537Z,13.43
2018-05-23T21:28:27.302Z,12.50
2018-05-23T21:30:54.040Z,14.40
2018-05-23T21:33:20.785Z,13.70
2018-05-23T21:35:47.522Z,13.83
2018-05-23T21:38:14.277Z,13.13
2018-05-23T21:40:41.008Z,15.00
2018-05-23T21:43:07.762Z,15.10
2018-05-23T21:45:34.508Z,14.90
2018-05-23T21:48:01.242Z,14.57
2018-05-23T21:50:27.994Z,14.67
2018-05-23T21:52:54.745Z,15.17
2018-05-23T21:55:21.480Z,14.80
2018-05-23T21:57:48.225Z,15.80
2018-05-23T22:00:14.953Z,17.13
2018-05-23T22:02:41.698Z,16.20
2018-05-23T22:05:08.426Z,15.97
2018-05-23T22:07:35.192Z,15.37
2018-05-23T22:10:01.933Z,16.20
2018-05-23T22:12:28.664Z,16.10
2018-05-23T22:14:55.409Z,17.30
2018-05-23T22:17:22.151Z,19.00
2018-05-23T22:19:48.892Z,19.27
2018-05-23T22:22:15.631Z,16.40
2018-05-23T22:24:42.373Z,16.60
2018-05-23T22:27:09.118Z,15.00
2018-05-23T22:29:35.875Z,18.00
2018-05-23T22:32:02.640Z,19.27
2018-05-23T22:34:29.378Z,15.60
2018-05-23T22:36:56.115Z,15.30
2018-05-23T22:39:22.850Z,16.97
2018-05-23T22:41:49.589Z,16.00
2018-05-23T22:44:16.346Z,16.07
2018-05-23T22:46:43.066Z,17.37
2018-05-23T22:49:09.807Z,17.23
2018-05-23T22:51:36.549Z,18.37
2018-05-23T22:54:03.310Z,17.80
2018-05-23T22:56:34.292Z,16.87
2018-05-23T22:59:01.039Z,15.00
2018-05-23T23:01:27.791Z,15.57
2018-05-23T23:03:54.531Z,16.00
2018-05-23T23:06:21.272Z,16.37
2018-05-23T23:08:48.027Z,16.03
2018-05-23T23:11:14.824Z,15.93
2018-05-23T23:13:41.624Z,15.90
2018-05-23T23:16:08.361Z,16.47
2018-05-23T23:18:35.192Z,16.20
2018-05-23T23:21:02.009Z,18.83
2018-05-23T23:23:28.730Z,16.83
2018-05-23T23:25:55.511Z,16.10
2018-05-23T23:28:22.259Z,16.30
2018-05-23T23:30:49.024Z,16.40
2018-05-23T23:33:15.760Z,17.10
2018-05-23T23:35:42.505Z,16.10
2018-05-23T23:38:09.254Z,15.17
2018-05-23T23:40:36.001Z,16.17
2018-05-23T23:43:02.732Z,16.37
2018-05-23T23:45:29.504Z,15.90
2018-05-23T23:47:56.240Z,16.73
2018-05-23T23:50:22.987Z,17.30
2018-05-23T23:52:49.712Z,17.20
2018-05-23T23:55:16.480Z,18.90
2018-05-23T23:57:43.211Z,16.40
